createdAt,value
2022-08-09T00:04:15.409Z,17.60
2022-08-09T00:09:29.304Z,17.60
2022-08-09T00:14:38.468Z,17.40
2022-08-09T00:19:42.522Z,17.30
2022-08-09T00:24:51.545Z,17.30
2022-08-09T00:30:24.864Z,17.10
2022-08-09T00:35:19.783Z,17.10
2022-08-09T00:40:23.852Z,17.00
2022-08-09T00:45:36.342Z,17.00
2022-08-09T00:50:40.036Z,17.00
2022-08-09T00:56:04.862Z,16.90
2022-08-09T01:01:15.870Z,16.80
2022-08-09T01:06:25.563Z,16.70
2022-08-09T01:11:53.313Z,16.60
2022-08-09T01:17:03.639Z,16.60
2022-08-09T01:22:16.319Z,16.60
2022-08-09T01:27:23.843Z,16.40
2022-08-09T01:32:33.776Z,16.20
2022-08-09T01:38:05.970Z,16.20
2022-08-09T01:43:04.899Z,16.20
2022-08-09T01:48:10.420Z,16.20
2022-08-09T01:53:21.525Z,16.30
2022-08-09T01:58:28.019Z,16.10
2022-08-09T02:03:32.582Z,16.00
2022-08-09T02:08:58.508Z,15.80
2022-08-09T02:14:07.097Z,15.70
2022-08-09T02:19:11.246Z,15.70
2022-08-09T02:24:26.283Z,15.60
2022-08-09T02:29:34.663Z,15.70
2022-08-09T02:34:41.635Z,15.60
2022-08-09T02:40:01.765Z,15.50
2022-08-09T02:45:09.783Z,15.30
2022-08-09T02:50:16.122Z,15.30
2022-08-09T02:55:22.699Z,15.30
2022-08-09T03:00:28.327Z,15.30
2022-08-09T03:05:34.268Z,15.30
2022-08-09T03:10:39.202Z,15.20
2022-08-09T03:16:05.949Z,15.20
2022-08-09T03:21:12.273Z,15.00
2022-08-09T03:26:16.746Z,15.20
2022-08-09T03:31:22.778Z,15.00
2022-08-09T03:36:27.352Z,14.90
2022-08-09T03:41:48.398Z,14.90
2022-08-09T03:46:53.225Z,14.90
2022-08-09T03:52:00.120Z,15.00
2022-08-09T03:57:18.639Z,14.90
2022-08-09T04:02:30.535Z,14.90
2022-08-09T04:07:52.404Z,14.90
2022-08-09T04:12:57.779Z,14.70
2022-08-09T04:18:05.980Z,14.70
2022-08-09T04:23:17.241Z,14.80
2022-08-09T04:28:33.570Z,14.80
2022-08-09T04:33:52.497Z,14.90
2022-08-09T04:38:57.559Z,14.90
2022-08-09T04:44:06.491Z,16.60
2022-08-09T04:49:14.541Z,17.40
2022-08-09T04:54:18.947Z,19.10
2022-08-09T04:59:22.710Z,19.40
2022-08-09T05:04:30.639Z,19.00
2022-08-09T05:09:42.056Z,18.00
2022-08-09T05:14:46.577Z,16.80
2022-08-09T05:19:56.592Z,16.50
2022-08-09T05:25:02.524Z,16.40
2022-08-09T05:30:06.633Z,16.30
2022-08-09T05:35:12.434Z,16.20
2022-08-09T05:40:16.637Z,16.20
2022-08-09T05:45:22.096Z,16.40
2022-08-09T05:50:50.767Z,16.70
2022-08-09T05:55:53.935Z,17.10
2022-08-09T06:00:58.137Z,17.60
2022-08-09T06:06:04.748Z,18.00
2022-08-09T06:11:17.313Z,18.70
2022-08-09T06:16:23.045Z,19.20
2022-08-09T06:21:28.235Z,19.40
2022-08-09T06:26:31.635Z,19.50
2022-08-09T06:31:40.315Z,19.40
2022-08-09T06:37:01.175Z,19.40
2022-08-09T06:42:09.280Z,19.10
2022-08-09T06:47:14.954Z,19.10
2022-08-09T06:52:19.797Z,19.20
2022-08-09T06:58:01.558Z,19.20
2022-08-09T07:02:50.947Z,19.40
2022-08-09T07:07:59.626Z,19.40
2022-08-09T07:13:05.371Z,19.60
2022-08-09T07:18:28.727Z,19.60
2022-08-09T07:23:56.680Z,20.00
2022-08-09T07:29:08.145Z,20.10
2022-08-09T07:34:19.610Z,20.40
2022-08-09T07:39:41.222Z,20.50
2022-08-09T07:44:52.453Z,20.70
2022-08-09T07:50:07.685Z,20.80
2022-08-09T07:55:14.261Z,21.00
2022-08-09T08:00:20.438Z,21.20
2022-08-09T08:05:53.686Z,21.50
2022-08-09T08:11:03.365Z,21.70
2022-08-09T08:16:29.598Z,22.00
2022-08-09T08:21:33.844Z,22.70
2022-08-09T08:26:56.216Z,22.70
2022-08-09T08:32:04.249Z,23.30
2022-08-09T08:37:15.786Z,23.30
2022-08-09T08:42:31.782Z,23.90
2022-08-09T08:47:38.497Z,24.00
2022-08-09T08:52:59.549Z,24.40
2022-08-09T08:58:05.102Z,24.40
2022-08-09T09:03:20.741Z,24.40
2022-08-09T09:08:31.862Z,24.40
2022-08-09T09:13:54.784Z,24.80
2022-08-09T09:19:22.740Z,24.90
2022-08-09T09:24:28.131Z,25.00
2022-08-09T09:30:09.372Z,25.20
2022-08-09T09:35:07.678Z,25.50
2022-08-09T09:40:13.597Z,25.80
2022-08-09T09:45:26.290Z,25.90
2022-08-09T09:50:50.977Z,25.90
2022-08-09T09:55:57.748Z,26.10
2022-08-09T10:01:31.140Z,26.10
2022-08-09T10:06:46.878Z,26.20
2022-08-09T10:12:14.943Z,26.30
2022-08-09T10:17:39.381Z,26.30
2022-08-09T10:22:47.845Z,25.90
2022-08-09T10:27:56.661Z,25.90
2022-08-09T10:33:03.896Z,26.00
2022-08-09T10:38:34.028Z,26.00
2022-08-09T10:43:36.134Z,26.00
2022-08-09T10:48:55.084Z,26.10
2022-08-09T10:54:04.777Z,26.30
2022-08-09T10:59:43.155Z,26.40
2022-08-09T11:10:54.873Z,26.20
2022-08-09T11:16:14.761Z,26.20
2022-08-09T11:21:57.264Z,26.90
2022-08-09T11:27:25.465Z,26.90
2022-08-09T11:32:48.266Z,27.00
2022-08-09T11:37:55.984Z,27.10
2022-08-09T11:43:01.601Z,27.10
2022-08-09T11:48:25.171Z,27.10
2022-08-09T11:53:59.066Z,27.20
2022-08-09T11:58:56.786Z,27.30
2022-08-09T12:04:01.337Z,28.00
2022-08-09T12:09:15.320Z,28.20
2022-08-09T12:14:36.658Z,28.50
2022-08-09T12:19:41.124Z,28.70
2022-08-09T12:24:45.877Z,28.50
2022-08-09T12:30:01.744Z,28.40
2022-08-09T12:35:23.112Z,28.70
2022-08-09T12:40:29.035Z,28.80
2022-08-09T12:45:38.120Z,28.80
2022-08-09T12:50:43.472Z,28.70
2022-08-09T12:56:15.778Z,28.50
2022-08-09T13:01:26.787Z,28.40
2022-08-09T13:06:34.691Z,28.50
2022-08-09T13:11:42.630Z,29.20
2022-08-09T13:16:48.066Z,29.30
2022-08-09T13:22:37.985Z,30.00
2022-08-09T13:27:40.086Z,30.00
2022-08-09T13:32:53.576Z,29.50
2022-08-09T13:37:56.872Z,29.40
2022-08-09T13:43:03.438Z,28.80
2022-08-09T13:48:10.784Z,28.70
2022-08-09T13:53:16.119Z,28.40
2022-08-09T13:58:21.455Z,28.30
2022-08-09T14:04:03.576Z,28.90
2022-08-09T14:08:48.537Z,29.10
2022-08-09T14:14:23.158Z,29.30
2022-08-09T14:19:17.453Z,29.10
2022-08-09T14:24:32.687Z,28.60
2022-08-09T14:30:34.932Z,28.50
2022-08-09T14:35:02.703Z,28.30
2022-08-09T14:40:06.909Z,28.10
2022-08-09T14:46:39.588Z,27.90
2022-08-09T14:50:37.365Z,27.80
2022-08-09T14:55:42.428Z,27.60
2022-08-09T15:00:53.779Z,27.40
2022-08-09T15:06:03.991Z,27.20
2022-08-09T15:11:08.153Z,27.00
2022-08-09T15:16:12.882Z,27.10
2022-08-09T15:21:56.063Z,27.40
2022-08-09T15:26:46.358Z,27.40
2022-08-09T15:31:52.095Z,27.60
2022-08-09T15:36:58.575Z,27.60
2022-08-09T15:42:02.086Z,27.90
2022-08-09T15:47:07.630Z,27.90
2022-08-09T15:52:18.528Z,28.00
2022-08-09T15:57:35.966Z,27.90
2022-08-09T16:02:54.058Z,27.70
2022-08-09T16:07:58.729Z,27.80
2022-08-09T16:13:05.440Z,27.80
2022-08-09T16:18:26.470Z,27.80
2022-08-09T16:23:29.995Z,27.70
2022-08-09T16:28:35.104Z,27.60
2022-08-09T16:33:44.318Z,27.90
2022-08-09T16:38:51.638Z,28.40
2022-08-09T16:43:58.855Z,28.80
2022-08-09T16:49:18.631Z,29.00
2022-08-09T16:54:34.781Z,29.20
2022-08-09T16:59:38.265Z,29.00
2022-08-09T17:04:50.447Z,28.70
2022-08-09T17:10:01.967Z,28.30
2022-08-09T17:15:30.800Z,28.40
2022-08-09T17:20:36.279Z,28.70
2022-08-09T17:25:42.622Z,28.80
2022-08-09T17:30:47.737Z,29.00
2022-08-09T17:35:53.149Z,29.00
2022-08-09T17:40:56.434Z,28.70
2022-08-09T17:46:03.580Z,28.60
2022-08-09T17:51:18.099Z,28.40
2022-08-09T17:56:27.268Z,28.30
2022-08-09T18:02:06.145Z,28.20
2022-08-09T18:06:58.148Z,27.80
2022-08-09T18:12:05.708Z,27.50
2022-08-09T18:17:27.566Z,27.00
2022-08-09T18:22:51.124Z,26.40
2022-08-09T18:28:03.854Z,26.00
2022-08-09T18:33:13.515Z,25.60
2022-08-09T18:38:20.371Z,25.20
2022-08-09T18:43:23.925Z,24.80
2022-08-09T18:48:30.122Z,24.60
2022-08-09T18:53:55.990Z,24.20
2022-08-09T18:59:01.216Z,24.00
2022-08-09T19:04:08.338Z,23.80
2022-08-09T19:09:33.974Z,23.60
2022-08-09T19:14:47.024Z,23.50
2022-08-09T19:19:50.863Z,23.40
2022-08-09T19:25:11.599Z,23.20
2022-08-09T19:30:32.236Z,23.00
2022-08-09T19:35:57.287Z,22.90
2022-08-09T19:41:01.992Z,22.80
2022-08-09T19:46:06.331Z,22.70
2022-08-09T19:51:11.879Z,22.60
2022-08-09T19:56:28.647Z,22.50
2022-08-09T20:01:52.373Z,22.30
2022-08-09T20:06:56.376Z,22.20
2022-08-09T20:12:02.576Z,22.20
2022-08-09T20:17:06.328Z,22.00
2022-08-09T20:22:14.221Z,21.90
2022-08-09T20:27:19.842Z,21.80
2022-08-09T20:32:33.203Z,21.70
2022-08-09T20:38:21.230Z,21.70
2022-08-09T20:43:19.191Z,21.50
2022-08-09T20:48:29.011Z,21.40
2022-08-09T20:53:36.613Z,21.30
2022-08-09T20:58:43.570Z,21.20
2022-08-09T21:05:49.101Z,21.20
2022-08-09T21:09:13.620Z,21.20
2022-08-09T21:14:19.096Z,21.00
2022-08-09T21:20:05.110Z,20.90
2022-08-09T21:25:00.248Z,20.80
2022-08-09T21:30:05.363Z,20.80
2022-08-09T21:35:08.799Z,20.80
2022-08-09T21:40:15.443Z,20.80
2022-08-09T21:45:27.549Z,20.70
2022-08-09T21:50:33.895Z,20.70
2022-08-09T21:55:42.085Z,20.60
2022-08-09T22:00:52.285Z,20.60
2022-08-09T22:05:57.924Z,20.40
2022-08-09T22:11:50.229Z,20.40
2022-08-09T22:16:26.529Z,20.10
2022-08-09T22:21:49.602Z,20.10
2022-08-09T22:26:53.839Z,20.00
2022-08-09T22:31:58.708Z,19.80
2022-08-09T22:37:02.328Z,19.60
2022-08-09T22:42:16.347Z,19.50
2022-08-09T22:48:13.371Z,19.30
2022-08-09T22:52:57.612Z,19.20
2022-08-09T22:58:02.353Z,19.10
2022-08-09T23:03:12.579Z,18.90
2022-08-09T23:08:34.738Z,18.90
2022-08-09T23:13:38.352Z,18.80
2022-08-09T23:18:43.996Z,18.70
2022-08-09T23:24:04.955Z,18.60
2022-08-09T23:29:11.875Z,18.60
2022-08-09T23:34:16.695Z,18.40
2022-08-09T23:39:20.444Z,18.40
2022-08-09T23:44:24.089Z,18.30
2022-08-09T23:49:28.785Z,18.30
2022-08-09T23:54:32.323Z,18.20
2022-08-09T23:59:49.808Z,18.20
